This is the latest recevied weather packets stored in our database for station/object SQ9SMC-13. If no packets are shown the sender has not sent any weather packets the latest 10 day(s).
| Time | Temp. | Humidity | Pressure | Rain* | Wind** | Luminosity | Snow |
|---|---|---|---|---|---|---|---|
| 1777753203 | 8.89° C | 73% | 1022.5 hPa | 0 mm | - | 0 W/m² | - |
| 1777752905 | 8.89° C | 74% | 1022.3 hPa | 0 mm | - | 0 W/m² | - |
| 1777752604 | 8.89° C | 73% | 1022.3 hPa | 0 mm | - | 0 W/m² | - |
| 1777752302 | 9.44° C | 72% | 1022.2 hPa | 0 mm | - | 0 W/m² | - |
| 1777752005 | 9.44° C | 70% | 1022.2 hPa | 0 mm | - | 0 W/m² | - |
| 1777751704 | 10° C | 68% | 1022.3 hPa | 0 mm | - | 0 W/m² | - |
| 1777751403 | 10.56° C | 67% | 1022.2 hPa | 0 mm | - | 0 W/m² | - |
| 1777751104 | 11.11° C | 63% | 1022.3 hPa | 0 mm | - | 0 W/m² | - |
| 1777750803 | 11.67° C | 61% | 1022.3 hPa | 0 mm | - | 0 W/m² | - |
| 1777750503 | 12.78° C | 59% | 1022.3 hPa | 0 mm | - | 0 W/m² | - |
| 1777750202 | 13.33° C | 55% | 1022.2 hPa | 0 mm | - | 0 W/m² | - |
| 1777749903 | 13.89° C | 53% | 1022.2 hPa | 0 mm | - | 0 W/m² | - |
| 1777749603 | 13.89° C | 53% | 1022.4 hPa | 0 mm | - | 0 W/m² | - |
| 1777749303 | 13.33° C | 54% | 1022.4 hPa | 0 mm | - | 0 W/m² | - |
| 1777749004 | 12.22° C | 58% | 1022.4 hPa | 0 mm | - | 0 W/m² | - |
| 1777748703 | 11.67° C | 61% | 1022.5 hPa | 0 mm | - | 0 W/m² | - |
| 1777748405 | 12.22° C | 61% | 1022.3 hPa | 0 mm | - | 0 W/m² | - |
| 1777748105 | 12.78° C | 59% | 1022.3 hPa | 0 mm | - | 0 W/m² | - |
| 1777747803 | 13.33° C | 56% | 1022.3 hPa | 0 mm | - | 0 W/m² | - |
| 1777747502 | 13.89° C | 55% | 1022.4 hPa | 0 mm | - | 0 W/m² | - |
| 1777747203 | 15° C | 52% | 1022.3 hPa | 0 mm | - | 0 W/m² | - |
| 1777746904 | 15.56° C | 49% | 1022.4 hPa | 0 mm | - | 0 W/m² | - |
| 1777746603 | 15.56° C | 49% | 1022.3 hPa | 0 mm | - | 0 W/m² | - |
| 1777746303 | 16.11° C | 47% | 1022.2 hPa | 0 mm | - | 0 W/m² | - |
| 1777746002 | 16.67° C | 46% | 1022.2 hPa | 0 mm | - | 0 W/m² | - |
* Rain latest hour (hover to see other rain measurements)
** Current wind speed in m/s (hover to see current wind gust speed)